< < Back
Terminal Aerodrome Forecast


Current Version              Previous Versions:   1  2  3  4  5  6  7  8  9  

Terminal Aerodrome Forecast

447
FTUS42 KGSP 241129
TAFGSP
TAF
KGSP 241129Z 2412/2512 20003KT P6SM FEW250
      TEMPO 2412/2413 4SM BR SCT004
     FM241900 20006KT P6SM SCT060 SCT250
     FM250300 VRB02KT P6SM SCT070 SCT250=

Latest METAR

134
SAUS70 KWBC 250400 RRB
MTRGSP
METAR KGSP 250353Z AUTO 23003KT 10SM FEW065 FEW080 28/21 A3005 RMK AO2
SLP160 T02780211


USA.gov is the U.S. government's official web portal to all federal, state and local government web resources and services.